createdAt,value
2023-02-15T00:00:14.300Z,99804.34
2023-02-15T00:02:20.916Z,99804.25
2023-02-15T00:04:47.389Z,99801.69
2023-02-15T00:06:52.798Z,99802.59
2023-02-15T00:08:58.140Z,99796.53
2023-02-15T00:11:10.366Z,99797.41
2023-02-15T00:13:15.144Z,99801.59
2023-02-15T00:15:20.209Z,99798.13
2023-02-15T00:17:25.236Z,99799.88
2023-02-15T00:19:32.792Z,99794.78
2023-02-15T00:21:39.413Z,99795.66
2023-02-15T00:23:44.192Z,99793.94
2023-02-15T00:25:48.989Z,99791.28
2023-02-15T00:27:53.810Z,99787.03
2023-02-15T00:29:58.595Z,99786.13
2023-02-15T00:32:03.552Z,99789.56
2023-02-15T00:34:10.395Z,99788.75
2023-02-15T00:36:18.071Z,99787.13
2023-02-15T00:38:22.935Z,99786.41
2023-02-15T00:40:27.861Z,99780.50
2023-02-15T00:42:33.440Z,99777.94
2023-02-15T00:44:38.261Z,99774.44
2023-02-15T00:46:43.323Z,99782.03
2023-02-15T00:48:48.160Z,99779.38
2023-02-15T00:50:55.749Z,99782.84
2023-02-15T00:53:03.189Z,99774.38
2023-02-15T00:55:09.977Z,99775.06
2023-02-15T00:57:14.966Z,99771.66
2023-02-15T00:59:19.721Z,99778.66
2023-02-15T01:01:26.975Z,99770.94
2023-02-15T01:03:31.887Z,99770.09
2023-02-15T01:05:36.790Z,99760.66
2023-02-15T01:07:42.561Z,99756.34
2023-02-15T01:09:50.494Z,99759.63
2023-02-15T01:11:55.250Z,99757.88
2023-02-15T01:14:01.648Z,99764.00
2023-02-15T01:16:07.850Z,99771.00
2023-02-15T01:18:13.057Z,99761.72
2023-02-15T01:20:18.373Z,99759.84
2023-02-15T01:22:23.323Z,99752.09
2023-02-15T01:24:28.176Z,99752.91
2023-02-15T01:26:35.590Z,99749.44
2023-02-15T01:28:40.785Z,99750.16
2023-02-15T01:30:45.764Z,99756.88
2023-02-15T01:32:50.564Z,99747.38
2023-02-15T01:34:55.476Z,99750.78
2023-02-15T01:37:00.381Z,99742.91
2023-02-15T01:39:05.441Z,99742.81
2023-02-15T01:41:23.270Z,99746.28
2023-02-15T01:43:45.384Z,99738.63
2023-02-15T01:45:53.710Z,99736.91
2023-02-15T01:48:03.394Z,99734.31
2023-02-15T01:50:13.936Z,99736.09
2023-02-15T01:52:21.524Z,99731.91
2023-02-15T01:54:31.359Z,99716.53
2023-02-15T01:56:38.951Z,99704.53
2023-02-15T01:58:48.164Z,99707.97
2023-02-15T02:00:55.097Z,99707.16
2023-02-15T02:03:00.904Z,99703.78
2023-02-15T02:05:09.657Z,99707.28
2023-02-15T02:07:18.186Z,99705.66
2023-02-15T02:09:23.082Z,99713.38
2023-02-15T02:11:28.549Z,99702.31
2023-02-15T02:13:33.524Z,99704.94
2023-02-15T02:15:48.126Z,99704.16
2023-02-15T02:18:07.055Z,99708.44
2023-02-15T02:20:29.738Z,99705.13
2023-02-15T02:23:04.524Z,99700.03
2023-02-15T02:25:36.435Z,99708.56
2023-02-15T02:27:45.229Z,99700.81
2023-02-15T02:30:23.528Z,99700.75
2023-02-15T02:32:59.993Z,99702.31
2023-02-15T02:35:12.891Z,99699.75
2023-02-15T02:37:27.339Z,99695.44
2023-02-15T02:39:41.385Z,99689.41
2023-02-15T02:41:59.879Z,99690.28
2023-02-15T02:44:12.701Z,99689.34
2023-02-15T02:46:23.684Z,99690.91
2023-02-15T02:48:31.784Z,99684.78
2023-02-15T02:50:39.328Z,99684.84
2023-02-15T02:52:46.111Z,99681.34
2023-02-15T02:54:50.943Z,99682.91
2023-02-15T02:56:59.909Z,99676.09
2023-02-15T02:59:10.406Z,99682.03
2023-02-15T03:01:20.528Z,99684.50
2023-02-15T03:03:31.383Z,99681.00
2023-02-15T03:05:43.203Z,99674.91
2023-02-15T03:07:53.757Z,99682.66
2023-02-15T03:10:01.322Z,99681.72
2023-02-15T03:12:07.027Z,99683.28
2023-02-15T03:14:19.561Z,99686.50
2023-02-15T03:16:28.386Z,99681.38
2023-02-15T03:18:38.445Z,99682.28
2023-02-15T03:20:46.900Z,99686.63
2023-02-15T03:22:56.911Z,99685.44
2023-02-15T03:25:06.096Z,99690.53
2023-02-15T03:27:18.740Z,99688.94
2023-02-15T03:29:27.877Z,99691.44
2023-02-15T03:31:36.231Z,99688.06
2023-02-15T03:33:45.984Z,99683.84
2023-02-15T03:36:00.607Z,99694.31
2023-02-15T03:38:08.271Z,99690.06
2023-02-15T03:40:32.006Z,99691.09
2023-02-15T03:42:42.527Z,99682.56
2023-02-15T03:44:54.857Z,99686.03
2023-02-15T03:47:08.100Z,99678.38
2023-02-15T03:49:18.820Z,99675.88
2023-02-15T03:51:37.292Z,99674.19
2023-02-15T03:53:43.953Z,99673.28
2023-02-15T03:55:50.416Z,99684.47
2023-02-15T03:58:08.060Z,99681.97
2023-02-15T04:00:30.154Z,99680.38
2023-02-15T04:02:41.144Z,99676.94
2023-02-15T04:04:48.960Z,99676.91
2023-02-15T04:06:56.491Z,99681.03
2023-02-15T04:09:13.717Z,99683.41
2023-02-15T04:11:18.658Z,99685.06
2023-02-15T04:13:23.947Z,99688.59
2023-02-15T04:15:41.282Z,99691.94
2023-02-15T04:17:46.140Z,99695.16
2023-02-15T04:20:03.512Z,99693.38
2023-02-15T04:22:23.365Z,99688.22
2023-02-15T04:24:40.708Z,99694.13
2023-02-15T04:26:45.497Z,99702.56
2023-02-15T04:28:50.329Z,99697.47
2023-02-15T04:30:55.319Z,99695.00
2023-02-15T04:33:00.345Z,99698.44
2023-02-15T04:35:05.205Z,99698.59
2023-02-15T04:37:12.602Z,99708.06
2023-02-15T04:39:18.347Z,99706.28
2023-02-15T04:41:23.327Z,99700.25
2023-02-15T04:43:28.121Z,99699.19
2023-02-15T04:45:33.074Z,99702.72
2023-02-15T04:47:38.693Z,99695.97
2023-02-15T04:49:43.531Z,99693.38
2023-02-15T04:51:48.327Z,99691.50
2023-02-15T04:53:57.086Z,99700.09
2023-02-15T04:56:02.098Z,99690.66
2023-02-15T04:58:06.844Z,99689.00
2023-02-15T05:00:12.897Z,99672.78
2023-02-15T05:02:17.744Z,99676.19
2023-02-15T05:04:22.772Z,99672.66
2023-02-15T05:06:27.516Z,99668.31
2023-02-15T05:08:32.500Z,99663.91
2023-02-15T05:10:39.917Z,99661.31
2023-02-15T05:12:44.776Z,99667.19
2023-02-15T05:14:49.624Z,99669.69
2023-02-15T05:16:56.667Z,99661.91
2023-02-15T05:19:01.533Z,99659.44
2023-02-15T05:21:06.684Z,99663.75
2023-02-15T05:23:11.306Z,99657.63
2023-02-15T05:25:28.627Z,99665.16
2023-02-15T05:27:48.541Z,99663.47
2023-02-15T05:29:56.026Z,99670.19
2023-02-15T05:32:01.420Z,99675.25
2023-02-15T05:34:06.304Z,99676.91
2023-02-15T05:36:11.868Z,99678.63
2023-02-15T05:38:16.888Z,99679.25
2023-02-15T05:40:22.072Z,99685.19
2023-02-15T05:42:26.578Z,99685.19
2023-02-15T05:44:34.045Z,99681.03
2023-02-15T05:46:39.093Z,99669.97
2023-02-15T05:48:44.047Z,99670.88
2023-02-15T05:50:49.622Z,99658.81
2023-02-15T05:52:57.036Z,99660.41
2023-02-15T05:55:03.446Z,99662.84
2023-02-15T05:57:08.294Z,99667.97
2023-02-15T05:59:13.805Z,99660.44
2023-02-15T06:01:23.613Z,99650.94
2023-02-15T06:03:29.896Z,99661.09
2023-02-15T06:05:34.790Z,99660.97
2023-02-15T06:07:39.685Z,99660.16
2023-02-15T06:09:44.572Z,99650.84
2023-02-15T06:11:49.498Z,99654.16
2023-02-15T06:13:55.666Z,99649.91
2023-02-15T06:16:00.858Z,99655.28
2023-02-15T06:18:08.622Z,99651.28
2023-02-15T06:20:14.203Z,99654.06
2023-02-15T06:22:19.026Z,99656.03
2023-02-15T06:24:23.863Z,99645.06
2023-02-15T06:26:28.908Z,99645.00
2023-02-15T06:28:33.809Z,99645.84
2023-02-15T06:30:38.664Z,99645.75
2023-02-15T06:32:44.027Z,99650.84
2023-02-15T06:34:51.426Z,99657.56
2023-02-15T06:36:56.282Z,99660.13
2023-02-15T06:39:01.236Z,99672.81
2023-02-15T06:41:06.362Z,99672.75
2023-02-15T06:43:11.013Z,99673.50
2023-02-15T06:45:15.966Z,99680.97
2023-02-15T06:47:20.846Z,99677.44
2023-02-15T06:49:25.677Z,99682.63
2023-02-15T06:51:35.024Z,99683.47
2023-02-15T06:53:42.704Z,99681.75
2023-02-15T06:55:47.566Z,99676.56
2023-02-15T06:57:52.343Z,99677.38
2023-02-15T06:59:59.539Z,99678.41
2023-02-15T07:02:04.579Z,99680.09
2023-02-15T07:04:09.416Z,99674.97
2023-02-15T07:06:14.864Z,99667.34
2023-02-15T07:08:22.369Z,99669.19
2023-02-15T07:10:27.236Z,99670.03
2023-02-15T07:12:45.356Z,99665.59
2023-02-15T07:14:50.308Z,99674.19
2023-02-15T07:16:55.087Z,99675.91
2023-02-15T07:18:59.922Z,99676.88
2023-02-15T07:21:04.911Z,99675.44
2023-02-15T07:23:09.724Z,99677.44
2023-02-15T07:25:18.002Z,99674.19
2023-02-15T07:27:23.257Z,99652.00
2023-02-15T07:29:28.322Z,99665.69
2023-02-15T07:31:33.709Z,99661.38
2023-02-15T07:33:38.790Z,99658.84
2023-02-15T07:35:50.554Z,99658.78
2023-02-15T07:37:55.617Z,99658.78
2023-02-15T07:40:00.393Z,99658.75
2023-02-15T07:42:07.820Z,99644.25
2023-02-15T07:44:15.515Z,99647.63
2023-02-15T07:46:21.974Z,99652.69
2023-02-15T07:48:27.575Z,99648.44
2023-02-15T07:50:33.510Z,99655.31
2023-02-15T07:52:39.034Z,99652.81
2023-02-15T07:54:44.398Z,99646.91
2023-02-15T07:56:49.268Z,99648.69
2023-02-15T07:58:56.803Z,99648.06
2023-02-15T08:01:05.144Z,99649.91
2023-02-15T08:03:19.112Z,99643.16
2023-02-15T08:05:24.197Z,99641.41
2023-02-15T08:07:29.033Z,99646.66
2023-02-15T08:09:33.903Z,99648.47
2023-02-15T08:11:41.022Z,99648.44
2023-02-15T08:13:54.802Z,99648.38
2023-02-15T08:16:02.542Z,99646.66
2023-02-15T08:18:07.630Z,99650.72
2023-02-15T08:20:14.498Z,99643.94
2023-02-15T08:22:19.422Z,99649.06
2023-02-15T08:24:26.572Z,99638.78
2023-02-15T08:26:32.828Z,99638.78
2023-02-15T08:28:39.795Z,99636.34
2023-02-15T08:30:44.819Z,99641.63
2023-02-15T08:32:52.266Z,99635.72
2023-02-15T08:34:59.911Z,99633.25
2023-02-15T08:37:04.776Z,99635.91
2023-02-15T08:39:10.301Z,99633.41
2023-02-15T08:41:17.857Z,99629.13
2023-02-15T08:43:23.430Z,99629.97
2023-02-15T08:45:28.369Z,99637.66
2023-02-15T08:47:33.290Z,99634.34
2023-02-15T08:49:40.709Z,99636.91
2023-02-15T08:51:48.882Z,99642.94
2023-02-15T08:53:56.204Z,99631.00
2023-02-15T08:56:01.273Z,99631.06
2023-02-15T08:58:05.936Z,99630.19
2023-02-15T09:00:13.003Z,99634.50
2023-02-15T09:02:17.826Z,99635.41
2023-02-15T09:04:23.727Z,99623.41
2023-02-15T09:06:32.995Z,99631.03
2023-02-15T09:08:37.800Z,99628.50
2023-02-15T09:10:42.749Z,99630.25
2023-02-15T09:12:47.484Z,99624.25
2023-02-15T09:14:52.300Z,99622.66
2023-02-15T09:16:59.067Z,99621.72
2023-02-15T09:19:05.773Z,99623.38
2023-02-15T09:21:14.608Z,99619.16
2023-02-15T09:23:27.054Z,99617.47
2023-02-15T09:25:32.180Z,99622.59
2023-02-15T09:27:37.564Z,99622.66
2023-02-15T09:29:42.435Z,99618.47
2023-02-15T09:31:49.936Z,99623.66
2023-02-15T09:33:55.415Z,99621.16
2023-02-15T09:36:00.748Z,99620.34
2023-02-15T09:38:05.623Z,99620.34
2023-02-15T09:40:19.724Z,99630.72
2023-02-15T09:42:53.817Z,99627.31
2023-02-15T09:45:12.430Z,99633.31
2023-02-15T09:47:41.611Z,99633.31
2023-02-15T09:49:53.019Z,99635.97
2023-02-15T09:52:31.408Z,99632.59
2023-02-15T09:54:56.420Z,99636.13
2023-02-15T09:57:11.411Z,99641.34
2023-02-15T09:59:23.154Z,99642.22
2023-02-15T10:01:40.314Z,99650.78
2023-02-15T10:04:03.777Z,99637.09
2023-02-15T10:06:36.599Z,99637.16
2023-02-15T10:09:07.636Z,99635.47
2023-02-15T10:11:31.942Z,99630.34
2023-02-15T10:13:48.693Z,99631.22
2023-02-15T10:16:09.563Z,99630.38
2023-02-15T10:18:26.244Z,99624.34
2023-02-15T10:20:39.292Z,99622.59
2023-02-15T10:22:56.512Z,99618.22
2023-02-15T10:25:17.799Z,99619.97
2023-02-15T10:27:24.272Z,99618.41
2023-02-15T10:29:39.954Z,99617.66
2023-02-15T10:31:49.017Z,99605.66
2023-02-15T10:34:08.221Z,99601.22
2023-02-15T10:36:30.891Z,99592.72
2023-02-15T10:38:43.537Z,99588.34
2023-02-15T10:41:02.183Z,99591.75
2023-02-15T10:43:30.410Z,99585.88
2023-02-15T10:45:48.074Z,99581.72
2023-02-15T10:48:05.651Z,99571.41
2023-02-15T10:50:30.236Z,99570.56
2023-02-15T10:52:50.174Z,99562.88
2023-02-15T10:55:04.257Z,99560.34
2023-02-15T10:57:18.978Z,99560.44
2023-02-15T10:59:36.124Z,99553.66
2023-02-15T11:01:48.312Z,99561.25
2023-02-15T11:04:12.140Z,99551.75
2023-02-15T11:06:20.965Z,99558.75
2023-02-15T11:08:30.320Z,99555.34
2023-02-15T11:10:40.298Z,99551.09
2023-02-15T11:12:48.311Z,99551.09
2023-02-15T11:14:59.068Z,99556.28
2023-02-15T11:17:12.626Z,99546.88
2023-02-15T11:19:25.674Z,99552.91
2023-02-15T11:21:37.926Z,99542.63
2023-02-15T11:23:46.957Z,99548.69
2023-02-15T11:26:00.056Z,99538.44
2023-02-15T11:28:10.077Z,99542.72
2023-02-15T11:30:18.331Z,99532.47
2023-02-15T11:32:28.959Z,99527.31
2023-02-15T11:34:38.645Z,99522.19
2023-02-15T11:36:45.542Z,99518.75
2023-02-15T11:38:54.936Z,99515.34
2023-02-15T11:41:04.837Z,99513.59
2023-02-15T11:43:18.639Z,99514.50
2023-02-15T11:45:31.569Z,99505.03
2023-02-15T11:47:39.077Z,99514.50
2023-02-15T11:49:43.996Z,99511.91
2023-02-15T11:51:51.737Z,99511.06
2023-02-15T11:53:56.966Z,99517.94
2023-02-15T11:56:01.628Z,99512.75
2023-02-15T11:58:12.530Z,99506.75
2023-02-15T12:00:27.082Z,99507.63
2023-02-15T12:02:35.405Z,99504.19
2023-02-15T12:04:47.201Z,99498.19
2023-02-15T12:07:02.296Z,99499.88
2023-02-15T12:09:30.256Z,99497.31
2023-02-15T12:11:39.133Z,99490.41
2023-02-15T12:13:59.247Z,99483.53
2023-02-15T12:16:11.753Z,99473.19
2023-02-15T12:18:30.360Z,99468.91
2023-02-15T12:20:41.169Z,99464.63
2023-02-15T12:22:55.196Z,99462.03
2023-02-15T12:25:03.559Z,99457.72
2023-02-15T12:27:17.650Z,99463.75
2023-02-15T12:29:33.550Z,99455.13
2023-02-15T12:31:40.874Z,99459.44
2023-02-15T12:33:47.648Z,99451.72
2023-02-15T12:36:01.880Z,99463.75
2023-02-15T12:38:23.255Z,99466.34
2023-02-15T12:40:31.603Z,99467.19
2023-02-15T12:42:47.035Z,99468.91
2023-02-15T12:45:06.313Z,99465.47
2023-02-15T12:47:28.937Z,99454.31
2023-02-15T12:49:35.710Z,99450.84
2023-02-15T12:51:54.172Z,99444.84
2023-02-15T12:54:02.058Z,99445.69
2023-02-15T12:56:09.127Z,99446.56
2023-02-15T12:58:21.704Z,99447.41
2023-02-15T13:00:33.113Z,99442.25
2023-02-15T13:02:45.730Z,99440.50
2023-02-15T13:04:55.549Z,99442.25
2023-02-15T13:07:06.469Z,99437.09
2023-02-15T13:09:19.646Z,99435.34
2023-02-15T13:11:31.113Z,99432.78
2023-02-15T13:13:39.539Z,99423.34
2023-02-15T13:15:48.309Z,99416.47
2023-02-15T13:17:54.611Z,99421.63
2023-02-15T13:20:01.483Z,99419.88
2023-02-15T13:22:14.296Z,99422.47
2023-02-15T13:24:24.683Z,99420.78
2023-02-15T13:26:33.615Z,99423.34
2023-02-15T13:28:43.663Z,99425.91
2023-02-15T13:30:51.658Z,99418.16
2023-02-15T13:32:59.803Z,99411.28
2023-02-15T13:35:08.214Z,99417.31
2023-02-15T13:37:23.232Z,99420.75
2023-02-15T13:39:34.518Z,99418.16
2023-02-15T13:41:54.647Z,99419.91
2023-02-15T13:44:08.467Z,99419.03
2023-02-15T13:46:26.398Z,99419.91
2023-02-15T13:48:50.317Z,99419.03
2023-02-15T13:51:06.608Z,99419.88
2023-02-15T13:53:39.868Z,99416.47
2023-02-15T13:55:50.981Z,99420.78
2023-02-15T13:58:16.879Z,99420.75
2023-02-15T14:00:26.667Z,99421.59
2023-02-15T14:02:48.493Z,99420.75
2023-02-15T14:05:05.990Z,99416.47
2023-02-15T14:07:24.881Z,99418.19
2023-02-15T14:09:44.947Z,99409.59
2023-02-15T14:11:58.929Z,99407.00
2023-02-15T14:14:41.738Z,99397.53
2023-02-15T14:17:06.552Z,99403.50
2023-02-15T14:19:24.132Z,99395.75
2023-02-15T14:21:34.431Z,99393.19
2023-02-15T14:24:01.676Z,99391.44
2023-02-15T14:26:13.528Z,99391.44
2023-02-15T14:28:24.835Z,99394.88
2023-02-15T14:30:33.592Z,99400.03
2023-02-15T14:32:44.925Z,99400.91
2023-02-15T14:34:56.755Z,99394.84
2023-02-15T14:37:02.022Z,99397.47
2023-02-15T14:39:33.575Z,99392.28
2023-02-15T14:41:49.755Z,99388.84
2023-02-15T14:44:05.656Z,99381.09
2023-02-15T14:46:14.055Z,99389.72
2023-02-15T14:48:30.158Z,99383.66
2023-02-15T14:50:50.268Z,99385.38
2023-02-15T14:53:28.723Z,99382.78
2023-02-15T14:55:39.168Z,99380.19
2023-02-15T14:58:00.584Z,99380.16
2023-02-15T15:00:21.637Z,99374.16
2023-02-15T15:02:29.832Z,99370.69
2023-02-15T15:04:39.010Z,99368.97
2023-02-15T15:06:47.258Z,99368.94
2023-02-15T15:08:56.803Z,99362.91
2023-02-15T15:11:43.425Z,99369.78
2023-02-15T15:14:06.770Z,99364.63
2023-02-15T15:16:44.281Z,99362.00
2023-02-15T15:18:51.200Z,99370.63
2023-02-15T15:20:55.991Z,99375.78
2023-02-15T15:23:30.656Z,99360.25
2023-02-15T15:25:46.408Z,99357.69
2023-02-15T15:27:55.193Z,99362.00
2023-02-15T15:30:03.375Z,99362.00
2023-02-15T15:32:16.048Z,99362.84
2023-02-15T15:34:37.394Z,99364.56
2023-02-15T15:37:08.178Z,99357.69
2023-02-15T15:39:32.468Z,99361.13
2023-02-15T15:41:45.945Z,99359.41
2023-02-15T15:44:14.806Z,99359.41
2023-02-15T15:46:51.411Z,99360.25
2023-02-15T15:48:56.638Z,99355.97
2023-02-15T15:51:03.463Z,99362.06
2023-02-15T15:53:09.010Z,99361.25
2023-02-15T15:55:21.033Z,99356.06
2023-02-15T15:57:32.607Z,99355.25
2023-02-15T15:59:38.273Z,99351.81
2023-02-15T16:01:48.162Z,99348.38
2023-02-15T16:03:57.401Z,99357.84
2023-02-15T16:06:03.393Z,99350.13
2023-02-15T16:08:09.086Z,99354.41
2023-02-15T16:10:25.178Z,99360.44
2023-02-15T16:12:32.405Z,99364.75
2023-02-15T16:14:41.150Z,99367.31
2023-02-15T16:16:52.357Z,99361.28
2023-02-15T16:18:58.873Z,99360.44
2023-02-15T16:21:05.250Z,99356.16
2023-02-15T16:23:35.771Z,99351.84
2023-02-15T16:25:56.477Z,99351.88
2023-02-15T16:28:09.301Z,99357.06
2023-02-15T16:30:29.928Z,99363.97
2023-02-15T16:32:38.642Z,99369.13
2023-02-15T16:34:57.938Z,99376.88
2023-02-15T16:37:18.356Z,99372.59
2023-02-15T16:39:24.371Z,99381.19
2023-02-15T16:41:31.446Z,99385.47
2023-02-15T16:43:36.704Z,99387.22
2023-02-15T16:45:41.236Z,99395.81
2023-02-15T16:47:53.917Z,99388.09
2023-02-15T16:50:01.539Z,99390.69
2023-02-15T16:52:11.036Z,99391.53
2023-02-15T16:54:23.021Z,99394.13
2023-02-15T16:56:30.150Z,99394.09
2023-02-15T16:58:41.455Z,99401.84
2023-02-15T17:00:46.896Z,99400.97
2023-02-15T17:03:07.562Z,99405.25
2023-02-15T17:05:21.928Z,99404.34
2023-02-15T17:07:26.804Z,99410.38
2023-02-15T17:09:31.641Z,99415.50
2023-02-15T17:11:39.785Z,99416.31
2023-02-15T17:14:24.552Z,99410.31
2023-02-15T17:16:34.544Z,99417.13
2023-02-15T17:18:48.815Z,99428.25
2023-02-15T17:20:55.965Z,99428.25
2023-02-15T17:23:01.210Z,99426.50
2023-02-15T17:25:09.129Z,99436.78
2023-02-15T17:27:20.399Z,99423.91
2023-02-15T17:29:31.612Z,99434.19
2023-02-15T17:31:37.149Z,99429.88
2023-02-15T17:33:44.768Z,99426.44
2023-02-15T17:36:07.164Z,99427.25
2023-02-15T17:38:22.430Z,99428.97
2023-02-15T17:40:29.441Z,99443.53
2023-02-15T17:42:34.251Z,99445.19
2023-02-15T17:44:39.117Z,99442.63
2023-02-15T17:46:44.285Z,99446.88
2023-02-15T17:48:52.967Z,99449.38
2023-02-15T17:51:01.449Z,99462.19
2023-02-15T17:53:06.661Z,99458.72
2023-02-15T17:55:30.203Z,99459.59
2023-02-15T17:57:36.495Z,99463.00
2023-02-15T17:59:53.781Z,99452.66
2023-02-15T18:02:11.057Z,99449.13
2023-02-15T18:04:31.248Z,99458.59
2023-02-15T18:06:50.045Z,99456.84
2023-02-15T18:09:07.393Z,99450.81
2023-02-15T18:11:25.619Z,99455.84
2023-02-15T18:13:30.472Z,99454.09
2023-02-15T18:15:35.452Z,99453.19
2023-02-15T18:17:42.185Z,99454.81
2023-02-15T18:19:49.898Z,99449.59
2023-02-15T18:21:57.763Z,99452.88
2023-02-15T18:24:02.994Z,99461.41
2023-02-15T18:26:08.362Z,99454.53
2023-02-15T18:28:13.349Z,99472.44
2023-02-15T18:30:21.534Z,99466.47
2023-02-15T18:32:35.389Z,99464.78
2023-02-15T18:34:42.647Z,99468.22
2023-02-15T18:36:50.181Z,99463.06
2023-02-15T18:38:55.701Z,99468.22
2023-02-15T18:41:00.722Z,99474.25
2023-02-15T18:43:05.822Z,99463.13
2023-02-15T18:45:18.607Z,99463.28
2023-02-15T18:47:23.478Z,99473.63
2023-02-15T18:49:28.285Z,99471.13
2023-02-15T18:51:39.907Z,99471.16
2023-02-15T18:53:48.001Z,99472.94
2023-02-15T18:55:55.745Z,99467.81
2023-02-15T18:58:01.246Z,99470.38
2023-02-15T19:00:08.914Z,99472.16
2023-02-15T19:02:17.155Z,99468.72
2023-02-15T19:04:24.235Z,99471.38
2023-02-15T19:06:32.258Z,99467.13
2023-02-15T19:08:37.860Z,99468.81
2023-02-15T19:10:45.599Z,99467.94
2023-02-15T19:12:51.250Z,99476.47
2023-02-15T19:14:56.856Z,99482.44
2023-02-15T19:17:03.067Z,99471.28
2023-02-15T19:19:07.834Z,99467.81
2023-02-15T19:21:19.019Z,99469.50
2023-02-15T19:23:32.834Z,99468.63
2023-02-15T19:25:40.414Z,99467.72
2023-02-15T19:27:48.789Z,99466.88
2023-02-15T19:29:54.212Z,99464.28
2023-02-15T19:31:59.870Z,99461.72
2023-02-15T19:34:04.746Z,99455.69
2023-02-15T19:36:17.633Z,99456.53
2023-02-15T19:38:25.328Z,99458.22
2023-02-15T19:40:32.168Z,99457.38
2023-02-15T19:42:37.142Z,99454.00
2023-02-15T19:44:44.553Z,99443.78
2023-02-15T19:46:49.610Z,99453.28
2023-02-15T19:48:56.370Z,99451.59
2023-02-15T19:51:01.346Z,99452.50
2023-02-15T19:53:06.454Z,99449.09
2023-02-15T19:55:18.123Z,99454.25
2023-02-15T19:57:23.768Z,99451.69
2023-02-15T19:59:31.034Z,99450.81
2023-02-15T20:01:39.740Z,99453.41
2023-02-15T20:03:44.602Z,99454.28
2023-02-15T20:05:49.647Z,99457.72
2023-02-15T20:07:55.214Z,99465.44
2023-02-15T20:10:00.038Z,99462.00
2023-02-15T20:12:04.891Z,99461.19
2023-02-15T20:14:14.718Z,99462.00
2023-02-15T20:16:20.250Z,99456.84
2023-02-15T20:18:27.930Z,99458.59
2023-02-15T20:20:40.372Z,99459.44
2023-02-15T20:22:47.038Z,99457.75
2023-02-15T20:24:52.104Z,99454.28
2023-02-15T20:27:01.028Z,99452.53
2023-02-15T20:29:10.337Z,99455.03
2023-02-15T20:31:17.830Z,99456.72
2023-02-15T20:33:23.903Z,99449.88
2023-02-15T20:35:34.536Z,99453.34
2023-02-15T20:37:39.380Z,99449.94
2023-02-15T20:39:44.168Z,99449.00
2023-02-15T20:41:50.406Z,99452.38
2023-02-15T20:43:55.464Z,99448.06
2023-02-15T20:46:00.457Z,99447.25
2023-02-15T20:48:05.331Z,99453.28
2023-02-15T20:50:10.795Z,99447.31
2023-02-15T20:52:23.075Z,99440.44
2023-02-15T20:54:29.301Z,99440.38
2023-02-15T20:56:34.885Z,99441.22
2023-02-15T20:58:41.872Z,99442.03
2023-02-15T21:00:46.765Z,99432.66
2023-02-15T21:02:52.518Z,99432.66
2023-02-15T21:05:01.608Z,99428.34
2023-02-15T21:07:06.520Z,99431.75
2023-02-15T21:09:16.355Z,99428.28
2023-02-15T21:11:23.868Z,99421.41
2023-02-15T21:13:32.406Z,99417.16
2023-02-15T21:15:39.915Z,99424.75
2023-02-15T21:17:44.883Z,99430.78
2023-02-15T21:19:49.682Z,99424.78
2023-02-15T21:21:55.967Z,99423.03
2023-02-15T21:24:00.942Z,99431.63
2023-02-15T21:26:09.894Z,99422.13
2023-02-15T21:28:21.128Z,99421.25
2023-02-15T21:30:27.522Z,99419.47
2023-02-15T21:32:32.485Z,99428.09
2023-02-15T21:34:37.506Z,99420.41
2023-02-15T21:36:43.845Z,99416.06
2023-02-15T21:38:49.636Z,99422.91
2023-02-15T21:40:55.193Z,99418.66
2023-02-15T21:43:15.483Z,99415.25
2023-02-15T21:45:37.477Z,99419.44
2023-02-15T21:47:54.006Z,99424.59
2023-02-15T21:50:18.847Z,99418.56
2023-02-15T21:52:24.080Z,99421.16
2023-02-15T21:54:29.855Z,99418.63
2023-02-15T21:56:34.851Z,99421.13
2023-02-15T21:58:42.421Z,99428.84
2023-02-15T22:00:47.322Z,99419.47
2023-02-15T22:02:57.104Z,99422.00
2023-02-15T22:05:02.240Z,99422.91
2023-02-15T22:07:07.123Z,99416.06
2023-02-15T22:09:18.298Z,99421.19
2023-02-15T22:11:24.863Z,99427.22
2023-02-15T22:13:32.147Z,99422.97
2023-02-15T22:15:41.895Z,99421.28
2023-02-15T22:17:46.683Z,99414.47
2023-02-15T22:19:52.705Z,99414.47
2023-02-15T22:21:59.572Z,99421.38
2023-02-15T22:24:04.460Z,99422.19
2023-02-15T22:26:14.385Z,99420.44
2023-02-15T22:28:19.456Z,99428.94
2023-02-15T22:30:29.599Z,99418.56
2023-02-15T22:32:37.294Z,99422.75
2023-02-15T22:34:42.166Z,99422.72
2023-02-15T22:36:46.946Z,99416.72
2023-02-15T22:38:51.859Z,99424.31
2023-02-15T22:41:03.368Z,99425.22
2023-02-15T22:43:08.934Z,99425.22
2023-02-15T22:45:19.659Z,99436.44
2023-02-15T22:47:27.011Z,99429.63
2023-02-15T22:49:34.631Z,99432.19
2023-02-15T22:51:39.426Z,99427.97
2023-02-15T22:53:44.289Z,99431.50
2023-02-15T22:55:50.150Z,99434.13
2023-02-15T22:57:58.143Z,99430.72
2023-02-15T23:00:03.488Z,99430.75
2023-02-15T23:02:08.452Z,99422.19
2023-02-15T23:04:19.629Z,99424.72
2023-02-15T23:06:27.090Z,99424.75
2023-02-15T23:08:34.159Z,99425.53
2023-02-15T23:10:39.061Z,99422.00
2023-02-15T23:12:58.106Z,99422.78
2023-02-15T23:15:03.124Z,99422.00
2023-02-15T23:17:07.955Z,99423.78
2023-02-15T23:19:15.487Z,99425.53
2023-02-15T23:21:23.364Z,99420.34
2023-02-15T23:23:36.610Z,99422.78
2023-02-15T23:25:41.505Z,99416.69
2023-02-15T23:28:01.637Z,99431.22
2023-02-15T23:30:08.687Z,99424.38
2023-02-15T23:32:16.220Z,99425.25
2023-02-15T23:34:24.862Z,99428.66
2023-02-15T23:36:33.498Z,99421.84
2023-02-15T23:38:40.899Z,99428.66
2023-02-15T23:40:58.817Z,99418.38
2023-02-15T23:43:03.780Z,99409.78
2023-02-15T23:45:21.178Z,99420.06
2023-02-15T23:47:42.130Z,99418.38
2023-02-15T23:49:46.967Z,99411.53
2023-02-15T23:51:56.437Z,99410.63
2023-02-15T23:54:03.807Z,99420.06
2023-02-15T23:56:09.417Z,99413.22
2023-02-15T23:58:19.088Z,99414.88
